sensor_id;sensor_type;location;lat;lon;timestamp;pressure;altitude;pressure_sealevel;temperature;humidity
75438;BME280;64015;49.392;15.582;2024-01-30T00:02:12;97405.75;;;-0.50;100.00
75438;BME280;64015;49.392;15.582;2024-01-30T00:04:37;97410.63;;;-0.47;100.00
75438;BME280;64015;49.392;15.582;2024-01-30T00:07:04;97417.09;;;-0.43;100.00
75438;BME280;64015;49.392;15.582;2024-01-30T00:09:35;97410.78;;;-0.48;100.00
75438;BME280;64015;49.392;15.582;2024-01-30T00:12:05;97416.28;;;-0.43;100.00
75438;BME280;64015;49.392;15.582;2024-01-30T00:14:56;97411.09;;;-0.43;100.00
75438;BME280;64015;49.392;15.582;2024-01-30T00:17:22;97394.56;;;-0.50;100.00
75438;BME280;64015;49.392;15.582;2024-01-30T00:19:47;97407.03;;;-0.46;100.00
75438;BME280;64015;49.392;15.582;2024-01-30T00:22:13;97412.88;;;-0.44;100.00
75438;BME280;64015;49.392;15.582;2024-01-30T00:24:42;97409.00;;;-0.48;100.00
75438;BME280;64015;49.392;15.582;2024-01-30T00:27:22;97406.88;;;-0.44;100.00
75438;BME280;64015;49.392;15.582;2024-01-30T00:29:48;97395.84;;;-0.46;100.00
75438;BME280;64015;49.392;15.582;2024-01-30T00:32:14;97406.72;;;-0.43;100.00
75438;BME280;64015;49.392;15.582;2024-01-30T00:34:41;97397.97;;;-0.42;100.00
75438;BME280;64015;49.392;15.582;2024-01-30T00:37:07;97412.41;;;-0.39;100.00
75438;BME280;64015;49.392;15.582;2024-01-30T00:39:33;97402.22;;;-0.32;100.00
75438;BME280;64015;49.392;15.582;2024-01-30T00:41:58;97411.47;;;-0.30;100.00
75438;BME280;64015;49.392;15.582;2024-01-30T00:44:24;97406.59;;;-0.25;100.00
75438;BME280;64015;49.392;15.582;2024-01-30T00:46:49;97409.19;;;-0.25;100.00
75438;BME280;64015;49.392;15.582;2024-01-30T00:49:15;97403.34;;;-0.27;100.00
75438;BME280;64015;49.392;15.582;2024-01-30T00:51:41;97396.06;;;-0.23;100.00
75438;BME280;64015;49.392;15.582;2024-01-30T00:54:07;97387.84;;;-0.19;100.00
75438;BME280;64015;49.392;15.582;2024-01-30T00:56:33;97389.41;;;-0.26;100.00
75438;BME280;64015;49.392;15.582;2024-01-30T00:58:59;97391.84;;;-0.24;100.00
75438;BME280;64015;49.392;15.582;2024-01-30T01:01:25;97395.25;;;-0.24;100.00
75438;BME280;64015;49.392;15.582;2024-01-30T01:03:51;97396.25;;;-0.17;100.00
75438;BME280;64015;49.392;15.582;2024-01-30T01:06:17;97386.22;;;-0.20;100.00
75438;BME280;64015;49.392;15.582;2024-01-30T01:08:42;97387.66;;;-0.17;100.00
75438;BME280;64015;49.392;15.582;2024-01-30T01:11:08;97390.75;;;-0.14;100.00
75438;BME280;64015;49.392;15.582;2024-01-30T01:13:34;97393.03;;;-0.11;100.00
75438;BME280;64015;49.392;15.582;2024-01-30T01:15:59;97386.06;;;-0.10;100.00
75438;BME280;64015;49.392;15.582;2024-01-30T01:18:25;97384.28;;;-0.10;100.00
75438;BME280;64015;49.392;15.582;2024-01-30T01:20:57;97383.63;;;-0.12;100.00
75438;BME280;64015;49.392;15.582;2024-01-30T01:23:23;97381.03;;;-0.12;100.00
75438;BME280;64015;49.392;15.582;2024-01-30T01:25:49;97379.88;;;-0.09;100.00
75438;BME280;64015;49.392;15.582;2024-01-30T01:28:14;97383.13;;;-0.07;100.00
75438;BME280;64015;49.392;15.582;2024-01-30T01:30:43;97382.31;;;-0.08;100.00
75438;BME280;64015;49.392;15.582;2024-01-30T01:33:09;97381.69;;;-0.10;100.00
75438;BME280;64015;49.392;15.582;2024-01-30T01:35:35;97392.22;;;-0.03;100.00
75438;BME280;64015;49.392;15.582;2024-01-30T01:38:01;97386.88;;;-0.10;100.00
75438;BME280;64015;49.392;15.582;2024-01-30T01:40:27;97393.03;;;-0.03;100.00
75438;BME280;64015;49.392;15.582;2024-01-30T01:42:54;97387.03;;;-0.03;100.00
75438;BME280;64015;49.392;15.582;2024-01-30T01:45:21;97394.66;;;-0.02;100.00
75438;BME280;64015;49.392;15.582;2024-01-30T01:47:48;97388.50;;;-0.01;100.00
75438;BME280;64015;49.392;15.582;2024-01-30T01:50:16;97378.28;;;-0.02;100.00
75438;BME280;64015;49.392;15.582;2024-01-30T01:52:44;97384.91;;;0.00;100.00
75438;BME280;64015;49.392;15.582;2024-01-30T01:55:13;97386.72;;;0.00;100.00
75438;BME280;64015;49.392;15.582;2024-01-30T01:57:40;97386.53;;;0.02;100.00
75438;BME280;64015;49.392;15.582;2024-01-30T02:00:13;97377.47;;;-0.03;100.00
75438;BME280;64015;49.392;15.582;2024-01-30T02:02:39;97385.91;;;-0.01;100.00
75438;BME280;64015;49.392;15.582;2024-01-30T02:05:05;97379.56;;;0.02;100.00
75438;BME280;64015;49.392;15.582;2024-01-30T02:07:31;97376.50;;;-0.02;100.00
75438;BME280;64015;49.392;15.582;2024-01-30T02:09:57;97380.38;;;-0.06;100.00
75438;BME280;64015;49.392;15.582;2024-01-30T02:12:22;97367.41;;;-0.06;100.00
75438;BME280;64015;49.392;15.582;2024-01-30T02:14:49;97376.66;;;-0.03;100.00
75438;BME280;64015;49.392;15.582;2024-01-30T02:17:15;97386.72;;;0.00;100.00
75438;BME280;64015;49.392;15.582;2024-01-30T02:19:42;97372.94;;;-0.01;100.00
75438;BME280;64015;49.392;15.582;2024-01-30T02:22:08;97373.25;;;-0.04;100.00
75438;BME280;64015;49.392;15.582;2024-01-30T02:24:34;97369.03;;;-0.05;100.00
75438;BME280;64015;49.392;15.582;2024-01-30T02:27:00;97366.59;;;-0.06;100.00
75438;BME280;64015;49.392;15.582;2024-01-30T02:29:26;97373.25;;;-0.12;100.00
75438;BME280;64015;49.392;15.582;2024-01-30T02:31:51;97377.94;;;-0.07;100.00
75438;BME280;64015;49.392;15.582;2024-01-30T02:34:18;97372.75;;;-0.07;100.00
75438;BME280;64015;49.392;15.582;2024-01-30T02:36:44;97369.69;;;-0.11;100.00
75438;BME280;64015;49.392;15.582;2024-01-30T02:39:10;97367.72;;;-0.09;100.00
75438;BME280;64015;49.392;15.582;2024-01-30T02:41:36;97363.03;;;-0.05;100.00
75438;BME280;64015;49.392;15.582;2024-01-30T02:44:03;97361.91;;;-0.11;100.00
75438;BME280;64015;49.392;15.582;2024-01-30T02:46:29;97368.06;;;-0.12;100.00
75438;BME280;64015;49.392;15.582;2024-01-30T02:48:55;97372.28;;;-0.19;100.00
75438;BME280;64015;49.392;15.582;2024-01-30T02:51:20;97372.28;;;-0.19;100.00
75438;BME280;64015;49.392;15.582;2024-01-30T02:53:46;97364.47;;;-0.27;100.00
75438;BME280;64015;49.392;15.582;2024-01-30T02:56:12;97376.47;;;-0.26;100.00
75438;BME280;64015;49.392;15.582;2024-01-30T02:58:39;97369.47;;;-0.33;100.00
75438;BME280;64015;49.392;15.582;2024-01-30T03:01:06;97372.22;;;-0.27;100.00
75438;BME280;64015;49.392;15.582;2024-01-30T03:03:32;97365.09;;;-0.33;100.00
75438;BME280;64015;49.392;15.582;2024-01-30T03:05:59;97366.75;;;-0.24;100.00
75438;BME280;64015;49.392;15.582;2024-01-30T03:08:25;97356.53;;;-0.25;100.00
75438;BME280;64015;49.392;15.582;2024-01-30T03:10:50;97355.41;;;-0.23;100.00
75438;BME280;64015;49.392;15.582;2024-01-30T03:13:16;97358.66;;;-0.21;100.00
75438;BME280;64015;49.392;15.582;2024-01-30T03:15:42;97352.66;;;-0.21;100.00
75438;BME280;64015;49.392;15.582;2024-01-30T03:18:07;97353.13;;;-0.18;100.00
75438;BME280;64015;49.392;15.582;2024-01-30T03:20:34;97353.47;;;-0.21;100.00
75438;BME280;64015;49.392;15.582;2024-01-30T03:23:00;97340.97;;;-0.17;100.00
75438;BME280;64015;49.392;15.582;2024-01-30T03:25:26;97342.59;;;-0.16;100.00
75438;BME280;64015;49.392;15.582;2024-01-30T03:27:52;97342.44;;;-0.23;100.00
75438;BME280;64015;49.392;15.582;2024-01-30T03:30:47;97345.03;;;-0.23;100.00
75438;BME280;64015;49.392;15.582;2024-01-30T03:33:15;97328.50;;;-0.38;100.00
75438;BME280;64015;49.392;15.582;2024-01-30T03:35:41;97348.28;;;-0.29;100.00
75438;BME280;64015;49.392;15.582;2024-01-30T03:38:07;97342.28;;;-0.29;100.00
75438;BME280;64015;49.392;15.582;2024-01-30T03:40:32;97349.72;;;-0.26;100.00
75438;BME280;64015;49.392;15.582;2024-01-30T03:42:58;97343.41;;;-0.24;100.00
75438;BME280;64015;49.392;15.582;2024-01-30T03:45:24;97348.09;;;-0.27;100.00
75438;BME280;64015;49.392;15.582;2024-01-30T03:47:49;97350.22;;;-0.31;100.00
75438;BME280;64015;49.392;15.582;2024-01-30T03:50:15;97348.88;;;-0.35;100.00
75438;BME280;64015;49.392;15.582;2024-01-30T03:52:40;97352.16;;;-0.33;100.00
75438;BME280;64015;49.392;15.582;2024-01-30T03:55:06;97349.56;;;-0.33;100.00
75438;BME280;64015;49.392;15.582;2024-01-30T03:57:32;97349.41;;;-0.31;100.00
75438;BME280;64015;49.392;15.582;2024-01-30T03:59:57;97343.88;;;-0.37;100.00
75438;BME280;64015;49.392;15.582;2024-01-30T04:02:23;97354.22;;;-0.37;100.00
75438;BME280;64015;49.392;15.582;2024-01-30T04:04:49;97348.44;;;-0.30;100.00
75438;BME280;64015;49.392;15.582;2024-01-30T04:07:14;97350.81;;;-0.37;100.00
75438;BME280;64015;49.392;15.582;2024-01-30T04:09:40;97349.84;;;-0.36;100.00
75438;BME280;64015;49.392;15.582;2024-01-30T04:12:06;97353.41;;;-0.37;100.00
75438;BME280;64015;49.392;15.582;2024-01-30T04:14:31;97359.41;;;-0.37;100.00
75438;BME280;64015;49.392;15.582;2024-01-30T04:16:57;97356.66;;;-0.35;100.00
75438;BME280;64015;49.392;15.582;2024-01-30T04:19:23;97346.81;;;-0.31;100.00
75438;BME280;64015;49.392;15.582;2024-01-30T04:21:48;97361.03;;;-0.35;100.00
75438;BME280;64015;49.392;15.582;2024-01-30T04:24:14;97362.88;;;-0.28;100.00
75438;BME280;64015;49.392;15.582;2024-01-30T04:26:57;97363.97;;;-0.30;100.00
75438;BME280;64015;49.392;15.582;2024-01-30T04:29:23;97359.25;;;-0.35;100.00
75438;BME280;64015;49.392;15.582;2024-01-30T04:31:48;97357.00;;;-0.38;100.00
75438;BME280;64015;49.392;15.582;2024-01-30T04:34:14;97355.03;;;-0.36;100.00
75438;BME280;64015;49.392;15.582;2024-01-30T04:36:44;97371.06;;;-0.49;100.00
75438;BME280;64015;49.392;15.582;2024-01-30T04:39:10;97359.84;;;-0.65;100.00
75438;BME280;64015;49.392;15.582;2024-01-30T04:41:35;97362.94;;;-0.62;100.00
75438;BME280;64015;49.392;15.582;2024-01-30T04:44:01;97365.03;;;-0.65;100.00
75438;BME280;64015;49.392;15.582;2024-01-30T04:46:27;97362.13;;;-0.54;100.00
75438;BME280;64015;49.392;15.582;2024-01-30T04:48:52;97353.53;;;-0.55;100.00
75438;BME280;64015;49.392;15.582;2024-01-30T04:51:18;97367.66;;;-0.57;100.00
75438;BME280;64015;49.392;15.582;2024-01-30T04:53:44;97356.78;;;-0.53;100.00
75438;BME280;64015;49.392;15.582;2024-01-30T04:56:09;97354.38;;;-0.54;100.00
75438;BME280;64015;49.392;15.582;2024-01-30T04:58:35;97357.47;;;-0.51;100.00
75438;BME280;64015;49.392;15.582;2024-01-30T05:01:02;97359.38;;;-0.53;100.00
75438;BME280;64015;49.392;15.582;2024-01-30T05:03:27;97353.22;;;-0.60;100.00
75438;BME280;64015;49.392;15.582;2024-01-30T05:05:53;97358.44;;;-0.52;100.00
75438;BME280;64015;49.392;15.582;2024-01-30T05:08:19;97356.94;;;-0.54;100.00
75438;BME280;64015;49.392;15.582;2024-01-30T05:10:44;97350.16;;;-0.55;100.00
75438;BME280;64015;49.392;15.582;2024-01-30T05:13:11;97354.38;;;-0.54;100.00
75438;BME280;64015;49.392;15.582;2024-01-30T05:15:39;97353.41;;;-0.53;100.00
75438;BME280;64015;49.392;15.582;2024-01-30T05:18:04;97358.72;;;-0.55;100.00
75438;BME280;64015;49.392;15.582;2024-01-30T05:20:30;97356.94;;;-0.54;100.00
75438;BME280;64015;49.392;15.582;2024-01-30T05:22:57;97369.31;;;-0.48;100.00
75438;BME280;64015;49.392;15.582;2024-01-30T05:25:23;97351.78;;;-0.54;100.00
75438;BME280;64015;49.392;15.582;2024-01-30T05:27:49;97352.56;;;-0.54;100.00
75438;BME280;64015;49.392;15.582;2024-01-30T05:30:15;97355.31;;;-0.55;100.00
75438;BME280;64015;49.392;15.582;2024-01-30T05:32:40;97348.06;;;-0.52;100.00
75438;BME280;64015;49.392;15.582;2024-01-30T05:35:07;97337.69;;;-0.52;100.00
75438;BME280;64015;49.392;15.582;2024-01-30T05:37:35;97351.13;;;-0.56;100.00
75438;BME280;64015;49.392;15.582;2024-01-30T05:40:01;97350.63;;;-0.60;100.00
75438;BME280;64015;49.392;15.582;2024-01-30T05:42:26;97356.63;;;-0.59;100.00
75438;BME280;64015;49.392;15.582;2024-01-30T05:44:52;97351.44;;;-0.59;100.00
75438;BME280;64015;49.392;15.582;2024-01-30T05:47:17;97350.63;;;-0.60;100.00
75438;BME280;64015;49.392;15.582;2024-01-30T05:49:43;97351.28;;;-0.58;100.00
75438;BME280;64015;49.392;15.582;2024-01-30T05:52:09;97357.41;;;-0.67;100.00
75438;BME280;64015;49.392;15.582;2024-01-30T05:54:35;97357.72;;;-0.70;100.00
75438;BME280;64015;49.392;15.582;2024-01-30T05:57:00;97351.88;;;-0.72;100.00
75438;BME280;64015;49.392;15.582;2024-01-30T05:59:26;97348.84;;;-0.67;100.00
75438;BME280;64015;49.392;15.582;2024-01-30T06:01:52;97353.53;;;-0.63;100.00
75438;BME280;64015;49.392;15.582;2024-01-30T06:04:17;97350.78;;;-0.61;100.00
75438;BME280;64015;49.392;15.582;2024-01-30T06:06:43;97354.03;;;-0.59;100.00
75438;BME280;64015;49.392;15.582;2024-01-30T06:09:09;97353.34;;;-0.69;100.00
75438;BME280;64015;49.392;15.582;2024-01-30T06:11:34;97355.78;;;-0.68;100.00
75438;BME280;64015;49.392;15.582;2024-01-30T06:14:00;97361.78;;;-0.67;100.00
75438;BME280;64015;49.392;15.582;2024-01-30T06:16:26;97362.75;;;-0.68;100.00
75438;BME280;64015;49.392;15.582;2024-01-30T06:18:55;97353.34;;;-0.69;100.00
75438;BME280;64015;49.392;15.582;2024-01-30T06:21:21;97354.00;;;-0.76;100.00
75438;BME280;64015;49.392;15.582;2024-01-30T06:23:47;97358.22;;;-0.74;100.00
75438;BME280;64015;49.392;15.582;2024-01-30T06:26:12;97362.25;;;-0.72;100.00
75438;BME280;64015;49.392;15.582;2024-01-30T06:28:38;97361.09;;;-0.78;100.00
75438;BME280;64015;49.392;15.582;2024-01-30T06:31:04;97360.44;;;-0.80;100.00
75438;BME280;64015;49.392;15.582;2024-01-30T06:33:30;97345.81;;;-0.97;100.00
75438;BME280;64015;49.392;15.582;2024-01-30T06:35:56;97358.16;;;-0.83;100.00
75438;BME280;64015;49.392;15.582;2024-01-30T06:38:22;97356.91;;;-0.79;100.00
75438;BME280;64015;49.392;15.582;2024-01-30T06:40:47;97364.03;;;-0.72;100.00
75438;BME280;64015;49.392;15.582;2024-01-30T06:43:13;97360.13;;;-0.85;100.00
75438;BME280;64015;49.392;15.582;2024-01-30T06:45:39;97364.59;;;-0.95;100.00
75438;BME280;64015;49.392;15.582;2024-01-30T06:48:05;97355.25;;;-0.88;100.00
75438;BME280;64015;49.392;15.582;2024-01-30T06:50:30;97359.59;;;-0.88;100.00
75438;BME280;64015;49.392;15.582;2024-01-30T06:52:56;97352.50;;;-0.86;100.00
75438;BME280;64015;49.392;15.582;2024-01-30T06:55:22;97349.75;;;-0.85;100.00
75438;BME280;64015;49.392;15.582;2024-01-30T06:57:47;97363.72;;;-0.69;100.00
75438;BME280;64015;49.392;15.582;2024-01-30T07:00:14;97362.75;;;-0.68;100.00
75438;BME280;64015;49.392;15.582;2024-01-30T07:02:41;97365.03;;;-0.65;100.00
75438;BME280;64015;49.392;15.582;2024-01-30T07:05:06;97366.00;;;-0.66;100.00
75438;BME280;64015;49.392;15.582;2024-01-30T07:07:32;97363.91;;;-0.63;100.00
75438;BME280;64015;49.392;15.582;2024-01-30T07:09:58;97357.72;;;-0.70;100.00
75438;BME280;64015;49.392;15.582;2024-01-30T07:12:24;97373.16;;;-0.60;100.00
75438;BME280;64015;49.392;15.582;2024-01-30T07:14:52;97367.44;;;-0.64;100.00
75438;BME280;64015;49.392;15.582;2024-01-30T07:17:18;97375.72;;;-0.68;100.00
75438;BME280;64015;49.392;15.582;2024-01-30T07:19:44;97374.22;;;-0.79;100.00
75438;BME280;64015;49.392;15.582;2024-01-30T07:22:10;97372.88;;;-0.83;100.00
75438;BME280;64015;49.392;15.582;2024-01-30T07:24:35;97375.69;;;-0.77;100.00
75438;BME280;64015;49.392;15.582;2024-01-30T07:27:01;97364.97;;;-0.82;100.00
75438;BME280;64015;49.392;15.582;2024-01-30T07:29:27;97373.69;;;-0.83;100.00
75438;BME280;64015;49.392;15.582;2024-01-30T07:31:52;97368.25;;;-0.71;100.00
75438;BME280;64015;49.392;15.582;2024-01-30T07:34:18;97364.84;;;-0.72;100.00
75438;BME280;64015;49.392;15.582;2024-01-30T07:36:44;97367.28;;;-0.70;100.00
75438;BME280;64015;49.392;15.582;2024-01-30T07:39:10;97367.94;;;-0.68;100.00
75438;BME280;64015;49.392;15.582;2024-01-30T07:41:36;97365.47;;;-0.78;100.00
75438;BME280;64015;49.392;15.582;2024-01-30T07:44:02;97369.88;;;-0.70;100.00
75438;BME280;64015;49.392;15.582;2024-01-30T07:46:28;97376.66;;;-0.78;100.00
75438;BME280;64015;49.392;15.582;2024-01-30T07:48:54;97371.78;;;-0.72;100.00
75438;BME280;64015;49.392;15.582;2024-01-30T07:51:21;97362.72;;;-0.77;100.00
75438;BME280;64015;49.392;15.582;2024-01-30T07:53:57;97376.69;;;-0.69;100.00
75438;BME280;64015;49.392;15.582;2024-01-30T07:56:23;97370.03;;;-0.72;100.00
75438;BME280;64015;49.392;15.582;2024-01-30T07:58:48;97378.06;;;-0.83;100.00
75438;BME280;64015;49.392;15.582;2024-01-30T08:01:15;97368.38;;;-0.81;100.00
75438;BME280;64015;49.392;15.582;2024-01-30T08:03:40;97373.09;;;-0.77;100.00
75438;BME280;64015;49.392;15.582;2024-01-30T08:06:07;97373.94;;;-0.68;100.00
75438;BME280;64015;49.392;15.582;2024-01-30T08:08:33;97373.28;;;-0.62;100.00
75438;BME280;64015;49.392;15.582;2024-01-30T08:10:58;97385.25;;;-0.69;100.00
75438;BME280;64015;49.392;15.582;2024-01-30T08:13:25;97381.84;;;-0.78;100.00
75438;BME280;64015;49.392;15.582;2024-01-30T08:15:51;97379.44;;;-0.63;100.00
75438;BME280;64015;49.392;15.582;2024-01-30T08:18:16;97373.78;;;-0.66;100.00
75438;BME280;64015;49.392;15.582;2024-01-30T08:20:42;97377.50;;;-0.61;100.00
75438;BME280;64015;49.392;15.582;2024-01-30T08:23:08;97382.06;;;-0.55;100.00
75438;BME280;64015;49.392;15.582;2024-01-30T08:25:33;97375.78;;;-0.44;100.00
75438;BME280;64015;49.392;15.582;2024-01-30T08:27:59;97375.78;;;-0.36;100.00
75438;BME280;64015;49.392;15.582;2024-01-30T08:30:25;97378.38;;;-0.36;100.00
75438;BME280;64015;49.392;15.582;2024-01-30T08:32:51;97381.94;;;-0.37;100.00
75438;BME280;64015;49.392;15.582;2024-01-30T08:35:17;97376.78;;;-0.29;100.00
75438;BME280;64015;49.392;15.582;2024-01-30T08:37:42;97376.59;;;-0.27;100.00
75438;BME280;64015;49.392;15.582;2024-01-30T08:40:08;97386.16;;;-0.36;100.00
75438;BME280;64015;49.392;15.582;2024-01-30T08:42:34;97387.09;;;-0.45;100.00
75438;BME280;64015;49.392;15.582;2024-01-30T08:45:00;97396.16;;;-0.57;100.00
75438;BME280;64015;49.392;15.582;2024-01-30T08:47:25;97397.44;;;-0.53;100.00
75438;BME280;64015;49.392;15.582;2024-01-30T08:49:51;97382.88;;;-0.54;100.00
75438;BME280;64015;49.392;15.582;2024-01-30T08:52:17;97388.56;;;-0.51;100.00
75438;BME280;64015;49.392;15.582;2024-01-30T08:54:43;97388.06;;;-0.54;100.00
75438;BME280;64015;49.392;15.582;2024-01-30T08:57:08;97388.25;;;-0.48;100.00
75438;BME280;64015;49.392;15.582;2024-01-30T08:59:34;97390.22;;;-0.33;100.00
75438;BME280;64015;49.392;15.582;2024-01-30T09:01:59;97379.84;;;-0.33;100.00
75438;BME280;64015;49.392;15.582;2024-01-30T09:04:25;97389.63;;;-0.19;100.00
75438;BME280;64015;49.392;15.582;2024-01-30T09:06:51;97388.00;;;-0.20;100.00
75438;BME280;64015;49.392;15.582;2024-01-30T09:09:17;97385.03;;;-0.33;100.00
75438;BME280;64015;49.392;15.582;2024-01-30T09:11:43;97386.66;;;-0.41;100.00
75438;BME280;64015;49.392;15.582;2024-01-30T09:14:09;97385.81;;;-0.49;100.00
75438;BME280;64015;49.392;15.582;2024-01-30T09:16:34;97378.19;;;-0.51;100.00
75438;BME280;64015;49.392;15.582;2024-01-30T09:19:01;97382.72;;;-0.45;100.00
75438;BME280;64015;49.392;15.582;2024-01-30T09:21:26;97381.31;;;-0.23;100.00
75438;BME280;64015;49.392;15.582;2024-01-30T09:24:01;97384.75;;;-0.14;100.00
75438;BME280;64015;49.392;15.582;2024-01-30T09:26:28;97391.91;;;0.00;100.00
75438;BME280;64015;49.392;15.582;2024-01-30T09:28:54;97384.44;;;0.05;100.00
75438;BME280;64015;49.392;15.582;2024-01-30T09:31:19;97387.19;;;0.04;100.00
75438;BME280;64015;49.392;15.582;2024-01-30T09:33:45;97384.59;;;-0.05;100.00
75438;BME280;64015;49.392;15.582;2024-01-30T09:36:13;97388.16;;;0.03;100.00
75438;BME280;64015;49.392;15.582;2024-01-30T09:38:41;97381.50;;;-0.08;100.00
75438;BME280;64015;49.392;15.582;2024-01-30T09:41:09;97394.16;;;-0.05;100.00
75438;BME280;64015;49.392;15.582;2024-01-30T09:43:37;97399.50;;;0.02;100.00
75438;BME280;64015;49.392;15.582;2024-01-30T09:46:03;97393.03;;;-0.03;100.00
75438;BME280;64015;49.392;15.582;2024-01-30T09:48:32;97402.09;;;0.02;100.00
75438;BME280;64015;49.392;15.582;2024-01-30T09:50:59;97393.34;;;0.19;100.00
75438;BME280;64015;49.392;15.582;2024-01-30T09:53:27;97403.91;;;0.09;100.00
75438;BME280;64015;49.392;15.582;2024-01-30T09:55:53;97399.19;;;-0.12;100.00
75438;BME280;64015;49.392;15.582;2024-01-30T09:58:19;97391.56;;;-0.13;100.00
75438;BME280;64015;49.392;15.582;2024-01-30T10:00:45;97401.31;;;0.09;100.00
75438;BME280;64015;49.392;15.582;2024-01-30T10:03:11;97395.94;;;0.03;100.00
75438;BME280;64015;49.392;15.582;2024-01-30T10:05:39;97384.59;;;0.12;100.00
75438;BME280;64015;49.392;15.582;2024-01-30T10:08:07;97384.59;;;0.28;100.00
75438;BME280;64015;49.392;15.582;2024-01-30T10:10:35;97388.97;;;0.11;100.00
75438;BME280;64015;49.392;15.582;2024-01-30T10:13:02;97385.59;;;0.35;100.00
75438;BME280;64015;49.392;15.582;2024-01-30T10:15:28;97379.41;;;0.36;100.00
75438;BME280;64015;49.392;15.582;2024-01-30T10:17:55;97368.38;;;0.34;100.00
75438;BME280;64015;49.392;15.582;2024-01-30T10:20:20;97383.28;;;0.56;100.00
75438;BME280;64015;49.392;15.582;2024-01-30T10:22:48;97370.31;;;0.48;100.00
75438;BME280;64015;49.392;15.582;2024-01-30T10:25:15;97375.31;;;0.58;100.00
75438;BME280;64015;49.392;15.582;2024-01-30T10:27:41;97368.69;;;0.63;100.00
75438;BME280;64015;49.392;15.582;2024-01-30T10:30:07;97367.69;;;0.72;100.00
75438;BME280;64015;49.392;15.582;2024-01-30T10:32:33;97367.53;;;0.58;100.00
75438;BME280;64015;49.392;15.582;2024-01-30T10:34:59;97364.75;;;0.67;100.00
75438;BME280;64015;49.392;15.582;2024-01-30T10:37:25;97366.41;;;0.52;100.00
75438;BME280;64015;49.392;15.582;2024-01-30T10:39:53;97358.44;;;0.70;100.00
75438;BME280;64015;49.392;15.582;2024-01-30T10:42:26;97359.09;;;0.56;100.00
75438;BME280;64015;49.392;15.582;2024-01-30T10:47:29;97360.34;;;0.76;100.00
75438;BME280;64015;49.392;15.582;2024-01-30T10:49:56;97350.59;;;0.86;100.00
75438;BME280;64015;49.392;15.582;2024-01-30T10:52:25;97350.66;;;0.62;100.00
75438;BME280;64015;49.392;15.582;2024-01-30T10:54:51;97343.72;;;0.46;100.00
75438;BME280;64015;49.392;15.582;2024-01-30T10:57:18;97352.00;;;0.42;100.00
75438;BME280;64015;49.392;15.582;2024-01-30T10:59:44;97340.94;;;0.64;100.00
75438;BME280;64015;49.392;15.582;2024-01-30T11:02:11;97345.25;;;0.80;100.00
75438;BME280;64015;49.392;15.582;2024-01-30T11:04:37;97342.16;;;0.76;100.00
75438;BME280;64015;49.392;15.582;2024-01-30T11:07:27;97339.31;;;0.63;100.00
75438;BME280;64015;49.392;15.582;2024-01-30T11:09:59;97340.47;;;0.52;100.00
75438;BME280;64015;49.392;15.582;2024-01-30T11:12:37;97333.16;;;0.48;100.00
75438;BME280;64015;49.392;15.582;2024-01-30T11:15:10;97333.78;;;0.58;100.00
75438;BME280;64015;49.392;15.582;2024-01-30T11:20:25;97315.03;;;0.87;100.00
75438;BME280;64015;49.392;15.582;2024-01-30T11:22:53;97328.00;;;0.95;100.00
75438;BME280;64015;49.392;15.582;2024-01-30T11:25:19;97333.34;;;0.93;100.00
75438;BME280;64015;49.392;15.582;2024-01-30T11:27:46;97329.78;;;0.94;100.00
75438;BME280;64015;49.392;15.582;2024-01-30T11:30:26;97315.41;;;1.15;100.00
75438;BME280;64015;49.392;15.582;2024-01-30T11:33:10;97316.03;;;1.17;100.00
75438;BME280;64015;49.392;15.582;2024-01-30T11:35:41;97311.00;;;1.15;100.00
75438;BME280;64015;49.392;15.582;2024-01-30T11:38:09;97318.53;;;1.10;100.00
75438;BME280;64015;49.392;15.582;2024-01-30T11:40:37;97309.81;;;0.95;100.00
75438;BME280;64015;49.392;15.582;2024-01-30T11:43:05;97315.97;;;0.94;100.00
75438;BME280;64015;49.392;15.582;2024-01-30T11:45:32;97311.56;;;0.63;100.00
75438;BME280;64015;49.392;15.582;2024-01-30T11:48:28;97305.34;;;0.72;100.00
75438;BME280;64015;49.392;15.582;2024-01-30T11:50:54;97313.63;;;0.68;100.00
75438;BME280;64015;49.392;15.582;2024-01-30T11:53:23;97311.81;;;0.77;100.00
75438;BME280;64015;49.392;15.582;2024-01-30T11:55:52;97312.69;;;0.61;100.00
75438;BME280;64015;49.392;15.582;2024-01-30T11:58:18;97298.88;;;0.68;100.00
75438;BME280;64015;49.392;15.582;2024-01-30T12:00:53;97295.28;;;0.69;100.00
75438;BME280;64015;49.392;15.582;2024-01-30T12:03:19;97295.19;;;0.55;100.00
75438;BME280;64015;49.392;15.582;2024-01-30T12:05:45;97292.94;;;0.44;100.00
75438;BME280;64015;49.392;15.582;2024-01-30T12:08:30;97289.66;;;0.50;100.00
75438;BME280;64015;49.392;15.582;2024-01-30T12:10:59;97291.72;;;0.70;100.00
75438;BME280;64015;49.392;15.582;2024-01-30T12:13:28;97281.00;;;0.65;100.00
75438;BME280;64015;49.392;15.582;2024-01-30T12:15:55;97291.72;;;0.70;100.00
75438;BME280;64015;49.392;15.582;2024-01-30T12:18:21;97291.66;;;0.87;100.00
75438;BME280;64015;49.392;15.582;2024-01-30T12:20:57;97299.91;;;0.43;100.00
75438;BME280;64015;49.392;15.582;2024-01-30T12:23:23;97282.53;;;0.52;100.00
75438;BME280;64015;49.392;15.582;2024-01-30T12:25:52;97274.22;;;0.56;100.00
75438;BME280;64015;49.392;15.582;2024-01-30T12:28:19;97276.47;;;0.67;100.00
75438;BME280;64015;49.392;15.582;2024-01-30T12:30:45;97273.84;;;0.75;100.00
75438;BME280;64015;49.392;15.582;2024-01-30T12:33:15;97281.19;;;0.64;100.00
75438;BME280;64015;49.392;15.582;2024-01-30T12:35:45;97269.16;;;0.16;100.00
75438;BME280;64015;49.392;15.582;2024-01-30T12:38:12;97271.72;;;0.32;100.00
75438;BME280;64015;49.392;15.582;2024-01-30T12:40:37;97265.56;;;0.25;100.00
75438;BME280;64015;49.392;15.582;2024-01-30T12:43:03;97267.03;;;0.27;100.00
75438;BME280;64015;49.392;15.582;2024-01-30T12:45:29;97261.66;;;0.29;100.00
75438;BME280;64015;49.392;15.582;2024-01-30T12:47:55;97267.13;;;0.42;100.00